Terminal Aerodrome Forecast
Issued by NWS Riverton, WY

Home | Current Version | Previous Version | Text Only | Print | Product List | Glossary On
Versions: 1 2 3 4 5 6 7 8 9 10 11 12 13 14 15 16
082
FTUS45 KRIW 211739
TAFRIW
TAF
KRIW 211739Z 2118/2218 08007KT P6SM SCT060 BKN100
     FM212200 03011G18KT P6SM BKN060
     FM220500 05011KT P6SM VCSH SCT030 BKN050=

USA.gov is the U.S. government's official web portal to all federal, state and local government web resources and services.